createdAt,value
2022-12-01T00:00:25.483Z,87.16
2022-12-01T00:02:48.299Z,87.20
2022-12-01T00:04:51.204Z,87.11
2022-12-01T00:06:53.937Z,87.00
2022-12-01T00:09:19.437Z,87.59
2022-12-01T00:11:23.628Z,87.60
2022-12-01T00:13:26.377Z,87.75
2022-12-01T00:15:31.895Z,87.63
2022-12-01T00:17:34.698Z,87.43
2022-12-01T00:19:37.648Z,86.76
2022-12-01T00:21:40.465Z,86.73
2022-12-01T00:23:44.424Z,86.56
2022-12-01T00:25:47.272Z,86.71
2022-12-01T00:27:52.174Z,86.59
2022-12-01T00:29:54.929Z,86.41
2022-12-01T00:31:57.822Z,86.69
2022-12-01T00:34:03.027Z,86.78
2022-12-01T00:36:07.874Z,86.70
2022-12-01T00:38:10.664Z,86.30
2022-12-01T00:40:14.001Z,86.07
2022-12-01T00:42:16.824Z,86.40
2022-12-01T00:44:19.722Z,86.29
2022-12-01T00:46:22.607Z,86.25
2022-12-01T00:48:25.575Z,86.33
2022-12-01T00:50:28.450Z,86.57
2022-12-01T00:52:31.306Z,87.11
2022-12-01T00:54:34.127Z,87.10
2022-12-01T00:56:36.897Z,86.83
2022-12-01T00:58:39.735Z,86.70
2022-12-01T01:00:43.137Z,86.57
2022-12-01T01:02:45.955Z,86.41
2022-12-01T01:04:50.950Z,86.82
2022-12-01T01:06:53.848Z,86.90
2022-12-01T01:08:56.674Z,86.83
2022-12-01T01:11:01.291Z,86.57
2022-12-01T01:13:04.159Z,86.83
2022-12-01T01:15:07.781Z,86.38
2022-12-01T01:17:10.654Z,86.48
2022-12-01T01:19:13.472Z,86.21
2022-12-01T01:21:18.636Z,86.59
2022-12-01T01:23:21.391Z,86.81
2022-12-01T01:25:24.318Z,86.81
2022-12-01T01:27:27.160Z,86.72
2022-12-01T01:29:29.960Z,86.51
2022-12-01T01:31:32.973Z,86.57
2022-12-01T01:33:36.338Z,86.46
2022-12-01T01:35:39.109Z,86.24
2022-12-01T01:37:41.974Z,86.53
2022-12-01T01:39:44.734Z,86.17
2022-12-01T01:41:47.615Z,86.43
2022-12-01T01:43:59.142Z,86.46
2022-12-01T01:46:01.945Z,86.92
2022-12-01T01:48:04.919Z,86.55
2022-12-01T01:50:11.505Z,87.05
2022-12-01T01:52:15.176Z,86.79
2022-12-01T01:54:21.037Z,86.97
2022-12-01T01:56:24.129Z,86.66
2022-12-01T01:58:27.842Z,86.23
2022-12-01T02:00:30.664Z,85.94
2022-12-01T02:02:40.686Z,85.70
2022-12-01T02:04:51.425Z,86.06
2022-12-01T02:06:55.228Z,86.25
2022-12-01T02:08:58.021Z,86.36
2022-12-01T02:11:00.774Z,86.51
2022-12-01T02:13:03.688Z,86.56
2022-12-01T02:15:12.551Z,86.49
2022-12-01T02:17:24.645Z,86.63
2022-12-01T02:19:36.552Z,86.39
2022-12-01T02:21:59.590Z,86.05
2022-12-01T02:24:43.690Z,85.85
2022-12-01T02:26:51.962Z,86.24
2022-12-01T02:29:27.858Z,86.28
2022-12-01T02:31:46.085Z,86.74
2022-12-01T02:34:05.947Z,87.05
2022-12-01T02:36:22.484Z,86.74
2022-12-01T02:38:40.370Z,86.40
2022-12-01T02:41:10.559Z,86.45
2022-12-01T02:43:25.233Z,86.21
2022-12-01T02:45:43.343Z,86.28
2022-12-01T02:47:46.548Z,86.55
2022-12-01T02:49:54.738Z,86.66
2022-12-01T02:51:59.179Z,86.36
2022-12-01T02:54:03.465Z,86.57
2022-12-01T02:56:10.444Z,86.42
2022-12-01T02:58:14.908Z,85.89
2022-12-01T03:00:18.567Z,85.63
2022-12-01T03:02:44.550Z,85.84
2022-12-01T03:05:21.953Z,85.42
2022-12-01T03:07:46.432Z,85.60
2022-12-01T03:10:27.601Z,85.69
2022-12-01T03:12:47.233Z,85.97
2022-12-01T03:15:28.514Z,86.04
2022-12-01T03:17:40.965Z,85.99
2022-12-01T03:19:50.598Z,85.65
2022-12-01T03:22:05.163Z,85.94
2022-12-01T03:24:15.232Z,86.16
2022-12-01T03:26:21.876Z,86.11
2022-12-01T03:28:31.083Z,86.29
2022-12-01T03:30:36.809Z,86.33
2022-12-01T03:32:57.738Z,86.35
2022-12-01T03:35:14.555Z,85.83
2022-12-01T03:37:45.830Z,85.76
2022-12-01T03:39:55.921Z,85.92
2022-12-01T03:42:14.116Z,85.76
2022-12-01T03:44:23.040Z,85.83
2022-12-01T03:46:41.199Z,85.69
2022-12-01T03:48:44.615Z,86.05
2022-12-01T03:51:32.899Z,86.23
2022-12-01T03:53:42.704Z,85.70
2022-12-01T03:55:51.828Z,85.61
2022-12-01T03:58:00.912Z,85.64
2022-12-01T04:00:07.624Z,85.35
2022-12-01T04:02:10.558Z,85.55
2022-12-01T04:04:15.011Z,85.90
2022-12-01T04:06:17.777Z,85.96
2022-12-01T04:08:20.678Z,86.16
2022-12-01T04:10:23.447Z,86.06
2022-12-01T04:12:35.255Z,86.23
2022-12-01T04:14:38.007Z,86.30
2022-12-01T04:16:40.827Z,86.27
2022-12-01T04:18:43.662Z,86.19
2022-12-01T04:20:47.987Z,86.17
2022-12-01T04:22:50.831Z,86.32
2022-12-01T04:24:53.848Z,86.30
2022-12-01T04:26:56.739Z,86.23
2022-12-01T04:29:04.703Z,86.34
2022-12-01T04:31:07.565Z,86.61
2022-12-01T04:33:10.430Z,86.47
2022-12-01T04:35:13.324Z,86.62
2022-12-01T04:37:16.850Z,86.34
2022-12-01T04:39:19.633Z,86.43
2022-12-01T04:41:22.476Z,86.55
2022-12-01T04:43:25.254Z,86.37
2022-12-01T04:45:28.045Z,86.56
2022-12-01T04:47:30.780Z,86.51
2022-12-01T04:49:35.090Z,86.43
2022-12-01T04:51:37.936Z,86.21
2022-12-01T04:53:40.983Z,86.23
2022-12-01T04:55:43.783Z,86.17
2022-12-01T04:57:46.567Z,86.08
2022-12-01T04:59:49.598Z,85.85
2022-12-01T05:01:52.753Z,86.03
2022-12-01T05:03:55.808Z,86.05
2022-12-01T05:06:06.877Z,86.08
2022-12-01T05:08:10.142Z,85.75
2022-12-01T05:10:14.366Z,86.15
2022-12-01T05:12:17.437Z,86.15
2022-12-01T05:14:20.209Z,86.06
2022-12-01T05:16:25.788Z,85.95
2022-12-01T05:18:28.816Z,86.21
2022-12-01T05:20:50.437Z,86.11
2022-12-01T05:23:05.444Z,85.87
2022-12-01T05:25:09.247Z,86.03
2022-12-01T05:27:12.100Z,86.34
2022-12-01T05:29:15.213Z,86.02
2022-12-01T05:31:18.071Z,86.10
2022-12-01T05:33:22.597Z,86.12
2022-12-01T05:35:25.419Z,86.25
2022-12-01T05:37:33.318Z,85.93
2022-12-01T05:39:36.312Z,86.19
2022-12-01T05:41:39.095Z,86.30
2022-12-01T05:43:42.031Z,86.22
2022-12-01T05:45:44.869Z,85.97
2022-12-01T05:47:47.728Z,85.86
2022-12-01T05:49:51.028Z,85.73
2022-12-01T05:51:53.996Z,85.50
2022-12-01T05:53:59.530Z,85.41
2022-12-01T05:56:02.341Z,85.52
2022-12-01T05:58:05.520Z,85.58
2022-12-01T06:00:09.234Z,85.49
2022-12-01T06:02:12.089Z,85.69
2022-12-01T06:04:15.211Z,85.61
2022-12-01T06:06:18.520Z,85.68
2022-12-01T06:08:21.515Z,84.84
2022-12-01T06:10:24.532Z,85.01
2022-12-01T06:12:27.730Z,85.21
2022-12-01T06:14:30.476Z,84.87
2022-12-01T06:16:33.380Z,84.48
2022-12-01T06:18:38.330Z,84.62
2022-12-01T06:20:41.174Z,85.01
2022-12-01T06:22:43.943Z,85.03
2022-12-01T06:24:46.756Z,84.97
2022-12-01T06:26:49.665Z,84.87
2022-12-01T06:28:52.480Z,85.06
2022-12-01T06:30:59.480Z,85.12
2022-12-01T06:33:06.102Z,85.04
2022-12-01T06:35:09.055Z,84.93
2022-12-01T06:37:12.555Z,84.98
2022-12-01T06:39:16.924Z,85.06
2022-12-01T06:41:19.652Z,85.06
2022-12-01T06:43:22.558Z,85.23
2022-12-01T06:45:25.376Z,85.63
2022-12-01T06:47:28.256Z,85.56
2022-12-01T06:49:31.077Z,85.49
2022-12-01T06:51:34.653Z,85.63
2022-12-01T06:53:37.462Z,85.52
2022-12-01T06:55:40.270Z,85.63
2022-12-01T06:57:43.680Z,85.56
2022-12-01T06:59:47.015Z,85.43
2022-12-01T07:01:50.565Z,85.71
2022-12-01T07:03:53.563Z,85.53
2022-12-01T07:06:01.298Z,85.70
2022-12-01T07:08:04.158Z,85.55
2022-12-01T07:10:08.483Z,85.61
2022-12-01T07:12:11.395Z,85.60
2022-12-01T07:14:32.074Z,85.89
2022-12-01T07:16:35.105Z,85.11
2022-12-01T07:18:38.816Z,84.95
2022-12-01T07:20:41.817Z,85.21
2022-12-01T07:22:44.608Z,85.49
2022-12-01T07:24:47.455Z,85.27
2022-12-01T07:26:50.244Z,85.37
2022-12-01T07:28:53.306Z,85.23
2022-12-01T07:31:04.055Z,85.39
2022-12-01T07:33:06.961Z,85.16
2022-12-01T07:35:10.371Z,85.18
2022-12-01T07:37:13.260Z,85.13
2022-12-01T07:39:16.177Z,84.94
2022-12-01T07:41:19.520Z,84.95
2022-12-01T07:43:22.332Z,85.11
2022-12-01T07:45:25.146Z,84.67
2022-12-01T07:47:27.997Z,84.24
2022-12-01T07:49:30.841Z,84.65
2022-12-01T07:51:34.229Z,84.55
2022-12-01T07:53:37.966Z,84.77
2022-12-01T07:55:47.571Z,84.91
2022-12-01T07:57:50.310Z,84.01
2022-12-01T07:59:53.205Z,84.47
2022-12-01T08:01:55.983Z,84.60
2022-12-01T08:04:00.322Z,84.80
2022-12-01T08:06:05.194Z,84.52
2022-12-01T08:08:08.150Z,84.70
2022-12-01T08:10:11.467Z,84.16
2022-12-01T08:12:14.364Z,83.44
2022-12-01T08:14:17.080Z,83.40
2022-12-01T08:16:22.475Z,82.94
2022-12-01T08:18:25.595Z,83.26
2022-12-01T08:20:28.482Z,83.19
2022-12-01T08:22:31.326Z,83.20
2022-12-01T08:24:34.125Z,83.20
2022-12-01T08:26:36.900Z,83.01
2022-12-01T08:28:40.265Z,82.05
2022-12-01T08:30:43.148Z,82.34
2022-12-01T08:32:46.011Z,82.07
2022-12-01T08:34:53.365Z,82.66
2022-12-01T08:36:56.643Z,81.66
2022-12-01T08:39:00.292Z,81.56
2022-12-01T08:41:08.863Z,82.20
2022-12-01T08:43:23.190Z,81.65
2022-12-01T08:45:34.618Z,81.36
2022-12-01T08:47:37.405Z,81.36
2022-12-01T08:49:40.159Z,81.65
2022-12-01T08:51:42.944Z,81.98
2022-12-01T08:53:47.871Z,81.58
2022-12-01T08:55:50.670Z,81.90
2022-12-01T08:57:53.461Z,81.38
2022-12-01T08:59:56.307Z,80.69
2022-12-01T09:02:02.429Z,79.08
2022-12-01T09:04:09.023Z,80.43
2022-12-01T09:06:14.166Z,80.06
2022-12-01T09:08:31.927Z,78.75
2022-12-01T09:10:34.748Z,78.85
2022-12-01T09:12:37.573Z,77.89
2022-12-01T09:14:44.350Z,78.69
2022-12-01T09:16:49.851Z,76.44
2022-12-01T09:18:52.653Z,77.48
2022-12-01T09:20:56.278Z,77.71
2022-12-01T09:22:59.180Z,79.53
2022-12-01T09:25:02.066Z,78.54
2022-12-01T09:27:05.599Z,79.15
2022-12-01T09:29:10.792Z,78.72
2022-12-01T09:31:15.419Z,77.82
2022-12-01T09:33:18.365Z,77.28
2022-12-01T09:35:23.584Z,76.17
2022-12-01T09:37:26.574Z,76.91
2022-12-01T09:39:29.960Z,76.70
2022-12-01T09:41:32.668Z,76.57
2022-12-01T09:44:10.741Z,74.61
2022-12-01T09:46:18.941Z,74.78
2022-12-01T09:48:29.529Z,75.80
2022-12-01T09:50:33.179Z,76.90
2022-12-01T09:52:43.324Z,75.14
2022-12-01T09:54:49.719Z,75.74
2022-12-01T09:56:55.550Z,75.26
2022-12-01T09:59:06.164Z,75.39
2022-12-01T10:01:17.696Z,74.84
2022-12-01T10:03:40.625Z,75.23
2022-12-01T10:06:18.454Z,75.23
2022-12-01T10:08:26.830Z,75.12
2022-12-01T10:10:51.178Z,75.53
2022-12-01T10:12:54.329Z,75.77
2022-12-01T10:15:14.235Z,74.28
2022-12-01T10:17:17.039Z,74.44
2022-12-01T10:19:33.040Z,74.48
2022-12-01T10:22:09.995Z,74.54
2022-12-01T10:24:34.088Z,74.71
2022-12-01T10:26:48.863Z,75.32
2022-12-01T10:29:10.321Z,75.87
2022-12-01T10:31:21.173Z,75.10
2022-12-01T10:33:26.626Z,74.03
2022-12-01T10:35:37.232Z,73.76
2022-12-01T10:37:40.228Z,74.13
2022-12-01T10:39:46.654Z,74.01
2022-12-01T10:41:50.219Z,74.47
2022-12-01T10:44:00.886Z,74.50
2022-12-01T10:46:44.272Z,74.60
2022-12-01T10:48:55.608Z,74.91
2022-12-01T10:51:15.492Z,75.21
2022-12-01T10:53:24.290Z,75.02
2022-12-01T10:55:31.039Z,74.17
2022-12-01T10:57:33.919Z,74.50
2022-12-01T10:59:48.910Z,75.11
2022-12-01T11:01:53.377Z,75.16
2022-12-01T11:03:59.860Z,75.46
2022-12-01T11:06:05.486Z,75.04
2022-12-01T11:08:22.752Z,75.08
2022-12-01T11:10:33.560Z,74.66
2022-12-01T11:12:36.388Z,74.80
2022-12-01T11:14:42.141Z,74.54
2022-12-01T11:16:48.131Z,74.73
2022-12-01T11:19:27.727Z,74.35
2022-12-01T11:21:32.613Z,74.95
2022-12-01T11:23:37.168Z,75.17
2022-12-01T11:25:40.230Z,75.08
2022-12-01T11:28:03.357Z,74.94
2022-12-01T11:30:24.886Z,74.89
2022-12-01T11:32:31.010Z,75.09
2022-12-01T11:34:34.639Z,75.39
2022-12-01T11:36:44.162Z,75.38
2022-12-01T11:38:47.721Z,75.45
2022-12-01T11:40:54.706Z,75.02
2022-12-01T11:42:59.217Z,74.55
2022-12-01T11:45:25.286Z,74.12
2022-12-01T11:47:28.592Z,74.43
2022-12-01T11:49:31.511Z,74.66
2022-12-01T11:51:38.068Z,74.94
2022-12-01T11:53:45.606Z,74.78
2022-12-01T11:55:48.398Z,75.01
2022-12-01T11:57:54.841Z,75.29
2022-12-01T11:59:57.823Z,75.13
2022-12-01T12:02:09.503Z,75.31
2022-12-01T12:04:30.476Z,75.50
2022-12-01T12:06:48.308Z,75.48
2022-12-01T12:09:22.587Z,75.77
2022-12-01T12:11:46.293Z,76.42
2022-12-01T12:14:39.341Z,76.48
2022-12-01T12:16:53.941Z,75.92
2022-12-01T12:19:33.649Z,75.83
2022-12-01T12:22:02.404Z,76.14
2022-12-01T12:24:26.725Z,76.33
2022-12-01T12:26:34.892Z,76.71
2022-12-01T12:28:59.621Z,76.90
2022-12-01T12:31:08.692Z,76.86
2022-12-01T12:33:32.269Z,76.68
2022-12-01T12:35:46.931Z,76.48
2022-12-01T12:38:28.317Z,76.64
2022-12-01T12:41:02.358Z,76.90
2022-12-01T12:43:33.328Z,77.27
2022-12-01T12:45:45.213Z,77.35
2022-12-01T12:48:25.788Z,77.14
2022-12-01T12:50:40.973Z,76.98
2022-12-01T12:52:47.772Z,76.52
2022-12-01T12:55:11.082Z,76.94
2022-12-01T12:57:30.158Z,77.08
2022-12-01T12:59:38.525Z,77.07
2022-12-01T13:01:55.956Z,77.21
2022-12-01T13:04:05.052Z,77.14
2022-12-01T13:06:18.146Z,77.44
2022-12-01T13:08:23.627Z,76.88
2022-12-01T13:10:29.464Z,77.21
2022-12-01T13:12:41.488Z,77.60
2022-12-01T13:15:00.820Z,77.55
2022-12-01T13:17:18.523Z,77.18
2022-12-01T13:19:25.715Z,77.31
2022-12-01T13:21:32.676Z,77.48
2022-12-01T13:23:37.797Z,77.57
2022-12-01T13:25:42.216Z,77.99
2022-12-01T13:27:46.107Z,77.96
2022-12-01T13:29:52.467Z,78.40
2022-12-01T13:31:55.622Z,78.38
2022-12-01T13:34:01.841Z,78.33
2022-12-01T13:36:45.173Z,78.36
2022-12-01T13:38:35.947Z,78.82
2022-12-01T13:40:39.395Z,78.42
2022-12-01T13:42:42.896Z,78.16
2022-12-01T13:45:17.158Z,78.32
2022-12-01T13:47:19.856Z,78.60
2022-12-01T13:49:44.142Z,78.97
2022-12-01T13:52:21.189Z,78.82
2022-12-01T13:54:29.648Z,79.17
2022-12-01T13:56:47.405Z,79.30
2022-12-01T13:58:52.718Z,79.96
2022-12-01T14:01:21.661Z,79.76
2022-12-01T14:03:39.873Z,79.88
2022-12-01T14:05:45.989Z,79.33
2022-12-01T14:07:51.045Z,79.19
2022-12-01T14:10:07.436Z,79.48
2022-12-01T14:12:20.910Z,79.60
2022-12-01T14:14:26.683Z,79.74
2022-12-01T14:16:49.616Z,80.15
2022-12-01T14:18:58.545Z,80.58
2022-12-01T14:21:04.782Z,81.09
2022-12-01T14:23:07.553Z,80.73
2022-12-01T14:25:22.710Z,80.91
2022-12-01T14:27:41.007Z,80.60
2022-12-01T14:29:44.000Z,80.40
2022-12-01T14:31:52.564Z,80.47
2022-12-01T14:34:03.484Z,80.80
2022-12-01T14:36:22.798Z,81.03
2022-12-01T14:38:28.493Z,81.45
2022-12-01T14:40:31.583Z,81.27
2022-12-01T14:43:11.259Z,81.32
2022-12-01T14:45:19.006Z,81.04
2022-12-01T14:47:29.745Z,80.80
2022-12-01T14:49:38.268Z,80.73
2022-12-01T14:51:46.188Z,81.13
2022-12-01T14:53:50.808Z,81.06
2022-12-01T14:55:56.822Z,81.42
2022-12-01T14:58:05.430Z,81.51
2022-12-01T15:00:14.410Z,81.50
2022-12-01T15:02:17.291Z,81.67
2022-12-01T15:04:20.219Z,81.71
2022-12-01T15:06:25.908Z,81.74
2022-12-01T15:08:41.923Z,81.33
2022-12-01T15:10:57.510Z,81.40
2022-12-01T15:13:14.762Z,81.57
2022-12-01T15:15:25.076Z,82.08
2022-12-01T15:17:37.076Z,82.32
2022-12-01T15:19:41.411Z,82.11
2022-12-01T15:21:44.272Z,82.41
2022-12-01T15:24:03.599Z,82.05
2022-12-01T15:26:06.934Z,82.04
2022-12-01T15:28:21.977Z,82.00
2022-12-01T15:30:24.867Z,82.54
2022-12-01T15:32:28.386Z,82.91
2022-12-01T15:34:39.783Z,82.94
2022-12-01T15:36:43.232Z,82.69
2022-12-01T15:38:48.213Z,82.60
2022-12-01T15:41:21.165Z,81.93
2022-12-01T15:43:22.355Z,82.31
2022-12-01T15:45:25.353Z,82.81
2022-12-01T15:47:36.111Z,82.63
2022-12-01T15:49:49.242Z,83.04
2022-12-01T15:51:52.038Z,82.79
2022-12-01T15:53:59.985Z,82.90
2022-12-01T15:56:06.673Z,82.53
2022-12-01T15:58:19.843Z,82.81
2022-12-01T16:00:23.202Z,83.12
2022-12-01T16:02:30.265Z,83.19
2022-12-01T16:04:33.218Z,83.04
2022-12-01T16:06:38.284Z,83.48
2022-12-01T16:08:41.276Z,82.91
2022-12-01T16:10:44.496Z,82.79
2022-12-01T16:12:47.991Z,82.50
2022-12-01T16:15:08.251Z,83.08
2022-12-01T16:17:11.262Z,83.47
2022-12-01T16:19:17.006Z,84.08
2022-12-01T16:21:20.429Z,83.58
2022-12-01T16:23:26.087Z,83.31
2022-12-01T16:25:32.497Z,83.47
2022-12-01T16:27:37.789Z,83.40
2022-12-01T16:29:58.867Z,82.94
2022-12-01T16:32:20.303Z,83.55
2022-12-01T16:34:44.706Z,83.64
2022-12-01T16:36:47.237Z,83.25
2022-12-01T16:38:50.076Z,83.36
2022-12-01T16:40:59.201Z,82.93
2022-12-01T16:43:01.952Z,82.89
2022-12-01T16:45:05.069Z,83.54
2022-12-01T16:47:17.694Z,83.50
2022-12-01T16:49:20.555Z,83.69
2022-12-01T16:51:29.914Z,83.38
2022-12-01T16:53:49.642Z,83.05
2022-12-01T16:55:59.727Z,83.39
2022-12-01T16:58:02.612Z,83.76
2022-12-01T17:00:06.099Z,84.18
2022-12-01T17:02:10.680Z,83.85
2022-12-01T17:04:13.659Z,83.41
2022-12-01T17:06:18.977Z,83.17
2022-12-01T17:08:22.281Z,83.57
2022-12-01T17:10:25.141Z,83.53
2022-12-01T17:12:28.213Z,83.75
2022-12-01T17:14:31.210Z,83.38
2022-12-01T17:16:34.034Z,83.83
2022-12-01T17:18:39.595Z,83.85
2022-12-01T17:20:42.987Z,84.00
2022-12-01T17:22:45.829Z,84.04
2022-12-01T17:24:49.038Z,83.67
2022-12-01T17:26:52.178Z,83.33
2022-12-01T17:28:55.424Z,83.35
2022-12-01T17:31:01.962Z,83.65
2022-12-01T17:33:04.944Z,84.14
2022-12-01T17:35:08.217Z,84.06
2022-12-01T17:37:14.870Z,84.13
2022-12-01T17:39:20.546Z,83.53
2022-12-01T17:41:25.020Z,83.44
2022-12-01T17:43:28.015Z,83.56
2022-12-01T17:45:32.452Z,83.82
2022-12-01T17:47:35.348Z,83.92
2022-12-01T17:49:38.179Z,84.31
2022-12-01T17:51:41.862Z,84.26
2022-12-01T17:53:44.858Z,84.05
2022-12-01T17:55:47.668Z,83.58
2022-12-01T17:57:50.452Z,83.58
2022-12-01T17:59:53.228Z,83.39
2022-12-01T18:01:56.203Z,83.59
2022-12-01T18:03:59.233Z,83.70
2022-12-01T18:06:02.262Z,83.74
2022-12-01T18:08:05.626Z,83.51
2022-12-01T18:10:08.874Z,83.85
2022-12-01T18:12:12.054Z,84.00
2022-12-01T18:14:17.886Z,83.44
2022-12-01T18:16:25.954Z,84.09
2022-12-01T18:18:28.986Z,84.12
2022-12-01T18:20:31.964Z,83.82
2022-12-01T18:22:34.795Z,83.79
2022-12-01T18:24:37.684Z,83.40
2022-12-01T18:26:41.344Z,83.22
2022-12-01T18:28:44.375Z,83.76
2022-12-01T18:30:47.266Z,83.58
2022-12-01T18:32:50.244Z,83.88
2022-12-01T18:34:53.271Z,83.82
2022-12-01T18:36:56.990Z,83.97
2022-12-01T18:39:01.132Z,83.52
2022-12-01T18:41:06.957Z,83.56
2022-12-01T18:43:12.883Z,83.74
2022-12-01T18:45:20.726Z,83.58
2022-12-01T18:47:24.110Z,83.87
2022-12-01T18:49:27.069Z,83.67
2022-12-01T18:51:34.182Z,83.72
2022-12-01T18:53:36.954Z,83.48
2022-12-01T18:55:39.804Z,83.79
2022-12-01T18:57:42.610Z,83.60
2022-12-01T18:59:45.806Z,83.62
2022-12-01T19:01:48.762Z,83.87
2022-12-01T19:03:51.840Z,83.42
2022-12-01T19:05:54.627Z,83.06
2022-12-01T19:07:57.862Z,82.92
2022-12-01T19:10:00.921Z,82.98
2022-12-01T19:12:03.960Z,83.29
2022-12-01T19:14:10.581Z,83.02
2022-12-01T19:16:19.915Z,83.18
2022-12-01T19:18:22.961Z,83.41
2022-12-01T19:20:25.829Z,82.98
2022-12-01T19:22:28.686Z,83.18
2022-12-01T19:24:31.528Z,83.51
2022-12-01T19:26:34.481Z,83.68
2022-12-01T19:28:38.296Z,83.54
2022-12-01T19:30:45.353Z,83.65
2022-12-01T19:32:50.786Z,83.47
2022-12-01T19:34:53.549Z,83.11
2022-12-01T19:36:56.916Z,82.96
2022-12-01T19:39:03.996Z,82.87
2022-12-01T19:41:11.277Z,82.67
2022-12-01T19:43:14.053Z,83.17
2022-12-01T19:45:16.853Z,82.79
2022-12-01T19:47:22.362Z,82.87
2022-12-01T19:49:25.512Z,82.90
2022-12-01T19:51:36.689Z,83.19
2022-12-01T19:53:39.425Z,83.08
2022-12-01T19:55:42.254Z,82.78
2022-12-01T19:57:45.030Z,83.15
2022-12-01T19:59:47.989Z,83.11
2022-12-01T20:01:50.890Z,82.85
2022-12-01T20:03:54.989Z,82.98
2022-12-01T20:06:05.495Z,83.15
2022-12-01T20:08:08.486Z,83.12
2022-12-01T20:10:11.573Z,83.01
2022-12-01T20:12:14.774Z,83.05
2022-12-01T20:14:17.636Z,83.00
2022-12-01T20:16:23.625Z,82.84
2022-12-01T20:18:26.490Z,82.74
2022-12-01T20:20:29.323Z,82.77
2022-12-01T20:22:33.733Z,82.86
2022-12-01T20:24:41.198Z,83.22
2022-12-01T20:26:50.375Z,82.71
2022-12-01T20:28:53.492Z,83.17
2022-12-01T20:30:58.298Z,83.02
2022-12-01T20:33:01.337Z,82.90
2022-12-01T20:35:04.862Z,83.11
2022-12-01T20:37:07.879Z,82.98
2022-12-01T20:39:12.096Z,82.88
2022-12-01T20:41:15.412Z,82.61
2022-12-01T20:43:19.122Z,82.14
2022-12-01T20:45:21.891Z,82.51
2022-12-01T20:47:24.894Z,82.47
2022-12-01T20:49:27.722Z,82.96
2022-12-01T20:51:33.499Z,82.55
2022-12-01T20:53:36.486Z,82.73
2022-12-01T20:55:39.531Z,82.87
2022-12-01T20:57:42.427Z,83.14
2022-12-01T20:59:45.229Z,83.19
2022-12-01T21:01:48.169Z,83.04
2022-12-01T21:03:51.280Z,83.07
2022-12-01T21:05:54.083Z,83.16
2022-12-01T21:07:56.874Z,83.35
2022-12-01T21:09:59.740Z,82.83
2022-12-01T21:12:24.470Z,82.67
2022-12-01T21:14:44.642Z,82.69
2022-12-01T21:16:49.508Z,82.35
2022-12-01T21:18:55.684Z,83.04
2022-12-01T21:21:19.663Z,83.47
2022-12-01T21:23:22.628Z,83.11
2022-12-01T21:25:25.767Z,82.76
2022-12-01T21:27:28.735Z,82.68
2022-12-01T21:29:41.055Z,82.42
2022-12-01T21:31:45.328Z,82.19
2022-12-01T21:33:48.162Z,82.70
2022-12-01T21:35:52.398Z,82.99
2022-12-01T21:38:01.836Z,82.78
2022-12-01T21:40:16.294Z,82.93
2022-12-01T21:42:25.882Z,82.72
2022-12-01T21:44:36.218Z,82.90
2022-12-01T21:46:42.635Z,82.45
2022-12-01T21:48:48.575Z,82.40
2022-12-01T21:50:59.684Z,82.12
2022-12-01T21:53:02.481Z,82.59
2022-12-01T21:55:14.452Z,82.63
2022-12-01T21:57:42.564Z,82.50
2022-12-01T21:59:45.995Z,82.63
2022-12-01T22:01:58.157Z,82.19
2022-12-01T22:04:05.776Z,82.00
2022-12-01T22:06:29.232Z,82.34
2022-12-01T22:08:36.470Z,82.62
2022-12-01T22:10:56.646Z,82.60
2022-12-01T22:12:59.428Z,82.37
2022-12-01T22:15:14.825Z,82.21
2022-12-01T22:17:21.689Z,82.14
2022-12-01T22:19:35.270Z,82.46
2022-12-01T22:21:45.554Z,82.40
2022-12-01T22:24:02.625Z,82.56
2022-12-01T22:26:16.910Z,82.49
2022-12-01T22:28:23.405Z,82.53
2022-12-01T22:30:26.174Z,83.13
2022-12-01T22:32:37.476Z,82.85
2022-12-01T22:34:45.552Z,82.19
2022-12-01T22:36:48.902Z,82.45
2022-12-01T22:38:52.038Z,81.94
2022-12-01T22:41:05.859Z,82.37
2022-12-01T22:43:17.857Z,82.99
2022-12-01T22:45:26.373Z,82.73
2022-12-01T22:47:32.992Z,82.85
2022-12-01T22:49:35.816Z,82.38
2022-12-01T22:51:44.475Z,82.08
2022-12-01T22:53:47.551Z,82.38
2022-12-01T22:55:54.076Z,82.04
2022-12-01T22:57:56.953Z,82.59
2022-12-01T23:00:17.278Z,82.71
2022-12-01T23:02:27.155Z,83.02
2022-12-01T23:04:38.689Z,82.88
2022-12-01T23:07:15.565Z,82.63
2022-12-01T23:09:19.291Z,82.14
2022-12-01T23:11:22.144Z,82.31
2022-12-01T23:13:25.198Z,82.01
2022-12-01T23:15:34.159Z,82.71
2022-12-01T23:17:39.213Z,83.00
2022-12-01T23:19:42.184Z,83.01
2022-12-01T23:21:44.958Z,83.00
2022-12-01T23:23:47.819Z,82.79
2022-12-01T23:25:50.694Z,82.61
2022-12-01T23:27:59.281Z,82.32
2022-12-01T23:30:02.112Z,82.62
2022-12-01T23:32:05.117Z,83.04
2022-12-01T23:34:16.883Z,82.72
2022-12-01T23:36:29.789Z,82.88
2022-12-01T23:38:38.916Z,82.66
2022-12-01T23:40:41.979Z,82.74
2022-12-01T23:42:44.857Z,82.52
2022-12-01T23:44:49.723Z,82.07
2022-12-01T23:46:55.576Z,82.70
2022-12-01T23:49:12.200Z,82.78
2022-12-01T23:51:32.704Z,82.89
2022-12-01T23:53:35.457Z,82.99
2022-12-01T23:55:39.299Z,83.00
2022-12-01T23:57:46.465Z,83.01
2022-12-01T23:59:51.152Z,82.95
